Wenham, MA (01984)

6:37 PM EST on January 17, 2017 (GMT -0500)
Wenham Country Club | | Change Station
Active Advisory: Small Craft Advisory

Elev 92 ft 42.60 °N, 70.89 °W | Updated 6 seconds ago

Overcast
Overcast
40.1 °F
Feels Like 40 °F
N
1.8
Wind Variable Wind from East
Gusts 2.5 mph

Today
High -- | Low -- °F
--% Chance of Precip.
Yesterday
High -- | Low -- °F
Precip. -- in
Pressure 30.18 in
Visibility 10.0 miles
Clouds Scattered Clouds 2700 ft
Overcast 3500 ft
Windchill 40 °F
Dew Point 32 °F
Humidity 73%
Rainfall 0.00 in
Snow Depth Not available.
7:09 AM 4:38 PM
Waning Gibbous, 68% visible
SPECI KBVY 172321Z 10008KT 10SM -RA SCT027 OVC035 04/01 A3018 RMK AO2 RAB08 P0000 T00440006
Pressure 30.18 in
Visibility 10.0 miles
Clouds Scattered Clouds 2700 ft
Overcast 3500 ft
Windchill 40 °F
Dew Point 32 °F
Humidity 73%
Rainfall 0.00 in
Snow Depth Not available.
7:09 AM 4:38 PM
Waning Gibbous, 68% visible
SPECI KBVY 172321Z 10008KT 10SM -RA SCT027 OVC035 04/01 A3018 RMK AO2 RAB08 P0000 T00440006

Get Your Daily Forecast Email!

Thanks for signing up!

Be on the lookout for a verification email in your inbox.

You'll start receiving the daily forecast at 8 AM.

×

10-Day Weather Forecast

Almanac

Astronomy

Jan. 17, 2017 Rise Set
Actual Time
Civil Twilight
Nautical Twilight
Astronomical Twilight
Moon
Length of Visible Light
Length of Day
Tomorrow will be .
, % of the Moon is Illuminated

Today's Extremes

State Highs State Lows

Community

WunderPhotos

Upload Photos

1,962,540 photos uploaded!

WunderBlog® & News

Nearby

Air Quality

  Air Quality AQ Index Pollutant
Not available.

Snow Depth

Station Depth Elevation

Earthquake Activity

City Distance Mag. Time & Date
Minimum magnitude displayed is 2.5.

Coastal Water Temperatures

Place Temperature

Stations

Nearby Weather Stations

Station Location Temp. Windchill Dew Point Humidity Wind Precip. Elev Updated Type
                   

Watches & Warnings

Small Craft Advisory
Issued: 3:45 PM EST Jan. 17, 2017 – National Weather Service

... Small Craft Advisory remains in effect from 11 PM this evening
to 7 PM EST Wednesday...

* winds and seas... east winds 15 to 20 kt with gusts up to 30
kt. Seas 7 to 10 feet.

Precautionary/preparedness actions...

A Small Craft Advisory means that wind speeds of 25 to 33 knots
are expected to produce hazardous wave conditions to small craft.
Inexperienced mariners... especially those operating smaller
vessels should avoid navigating in these conditions.